createdAt,value
2023-07-22T00:00:42.782Z,2.64
2023-07-22T00:03:09.608Z,2.75
2023-07-22T00:05:36.177Z,2.81
2023-07-22T00:08:02.746Z,2.93
2023-07-22T00:10:29.306Z,2.74
2023-07-22T00:12:55.931Z,3.00
2023-07-22T00:15:22.541Z,3.25
2023-07-22T00:17:49.233Z,3.23
2023-07-22T00:20:15.925Z,2.91
2023-07-22T00:22:42.532Z,2.70
2023-07-22T00:25:09.202Z,2.73
2023-07-22T00:27:35.864Z,2.93
2023-07-22T00:30:02.504Z,2.69
2023-07-22T00:32:29.107Z,3.07
2023-07-22T00:34:55.764Z,2.89
2023-07-22T00:37:22.377Z,2.97
2023-07-22T00:39:48.926Z,2.90
2023-07-22T00:42:15.572Z,2.94
2023-07-22T00:44:42.251Z,2.81
2023-07-22T00:47:08.854Z,2.77
2023-07-22T00:49:35.493Z,2.79
2023-07-22T00:52:02.094Z,2.95
2023-07-22T00:54:28.655Z,2.92
2023-07-22T00:56:55.275Z,3.07
2023-07-22T00:59:21.838Z,3.21
2023-07-22T01:01:48.437Z,3.06
2023-07-22T01:04:15.054Z,3.44
2023-07-22T01:06:41.652Z,3.02
2023-07-22T01:09:08.366Z,2.94
2023-07-22T01:11:37.818Z,3.06
2023-07-22T01:14:04.405Z,3.29
2023-07-22T01:16:30.992Z,3.29
2023-07-22T01:18:57.616Z,3.33
2023-07-22T01:21:24.246Z,3.11
2023-07-22T01:23:50.810Z,3.23
2023-07-22T01:26:17.375Z,3.02
2023-07-22T01:28:43.995Z,3.11
2023-07-22T01:31:10.607Z,2.94
2023-07-22T01:33:37.335Z,2.98
2023-07-22T01:36:03.875Z,2.78
2023-07-22T01:38:30.403Z,2.99
2023-07-22T01:40:56.994Z,2.90
2023-07-22T01:43:23.566Z,2.79
2023-07-22T01:45:50.152Z,2.86
2023-07-22T01:48:16.787Z,2.87
2023-07-22T01:50:43.359Z,2.94
2023-07-22T01:53:11.376Z,2.92
2023-07-22T01:55:37.947Z,3.06
2023-07-22T01:58:04.506Z,2.85
2023-07-22T02:00:31.095Z,3.09
2023-07-22T02:02:57.755Z,2.95
2023-07-22T02:05:24.510Z,2.79
2023-07-22T02:07:51.127Z,3.16
2023-07-22T02:10:17.723Z,2.94
2023-07-22T02:12:44.293Z,3.09
2023-07-22T02:15:10.875Z,3.03
2023-07-22T02:17:37.488Z,2.93
2023-07-22T02:20:04.102Z,3.14
2023-07-22T02:22:30.735Z,3.01
2023-07-22T02:24:57.369Z,2.95
2023-07-22T02:27:23.981Z,2.79
2023-07-22T02:29:50.607Z,2.85
2023-07-22T02:32:17.134Z,2.83
2023-07-22T02:34:43.674Z,2.93
2023-07-22T02:37:10.304Z,3.01
2023-07-22T02:39:36.829Z,2.94
2023-07-22T02:42:03.455Z,2.98
2023-07-22T02:44:29.954Z,2.95
2023-07-22T02:46:56.558Z,2.94
2023-07-22T02:49:23.493Z,2.86
2023-07-22T02:51:50.076Z,3.05
2023-07-22T02:54:16.665Z,3.02
2023-07-22T02:56:43.270Z,2.84
2023-07-22T02:59:09.845Z,2.86
2023-07-22T03:01:36.407Z,2.89
2023-07-22T03:04:02.992Z,2.88
2023-07-22T03:06:29.737Z,2.80
2023-07-22T03:08:56.436Z,3.01
2023-07-22T03:11:23.089Z,2.95
2023-07-22T03:13:49.721Z,3.03
2023-07-22T03:16:16.399Z,3.07
2023-07-22T03:18:43.078Z,2.95
2023-07-22T03:21:09.684Z,3.08
2023-07-22T03:23:36.199Z,2.92
2023-07-22T03:26:02.981Z,3.02
2023-07-22T03:28:29.630Z,3.10
2023-07-22T03:30:56.287Z,2.92
2023-07-22T03:33:22.878Z,2.66
2023-07-22T03:35:49.437Z,2.76
2023-07-22T03:38:16.020Z,2.98
2023-07-22T03:40:42.578Z,2.90
2023-07-22T03:43:09.169Z,3.03
2023-07-22T03:45:35.766Z,3.04
2023-07-22T03:48:02.492Z,2.93
2023-07-22T03:50:29.346Z,2.99
2023-07-22T03:52:56.131Z,3.22
2023-07-22T03:55:22.736Z,3.08
2023-07-22T03:57:49.349Z,3.24
2023-07-22T04:00:15.944Z,3.13
2023-07-22T04:02:42.587Z,2.95
2023-07-22T04:05:09.208Z,2.92
2023-07-22T04:07:35.978Z,2.82
2023-07-22T04:10:02.541Z,3.10
2023-07-22T04:12:29.128Z,3.04
2023-07-22T04:14:55.749Z,3.08
2023-07-22T04:17:22.447Z,3.10
2023-07-22T04:19:49.058Z,3.09
2023-07-22T04:22:15.660Z,2.95
2023-07-22T04:24:42.364Z,3.20
2023-07-22T04:27:09.072Z,3.16
2023-07-22T04:29:35.634Z,3.06
2023-07-22T04:32:02.239Z,2.86
2023-07-22T04:34:28.727Z,2.85
2023-07-22T04:36:55.308Z,3.21
2023-07-22T04:39:21.876Z,3.10
2023-07-22T04:41:48.488Z,3.17
2023-07-22T04:44:15.066Z,3.06
2023-07-22T04:46:41.707Z,3.28
2023-07-22T04:49:08.349Z,3.04
2023-07-22T04:51:34.877Z,2.96
2023-07-22T04:54:01.445Z,3.17
2023-07-22T04:56:28.342Z,3.04
2023-07-22T04:58:55.176Z,3.11
2023-07-22T05:01:21.765Z,2.72
2023-07-22T05:03:48.439Z,3.02
2023-07-22T05:06:15.080Z,2.94
2023-07-22T05:08:41.605Z,2.93
2023-07-22T05:11:08.253Z,3.20
2023-07-22T05:13:34.793Z,3.28
2023-07-22T05:16:01.447Z,3.08
2023-07-22T05:18:28.070Z,3.03
2023-07-22T05:20:54.669Z,3.05
2023-07-22T05:23:21.279Z,3.21
2023-07-22T05:25:47.842Z,3.01
2023-07-22T05:28:14.611Z,3.07
2023-07-22T05:30:41.197Z,3.18
2023-07-22T05:33:07.811Z,3.08
2023-07-22T05:35:34.670Z,3.06
2023-07-22T05:38:01.313Z,3.11
2023-07-22T05:40:28.081Z,3.19
2023-07-22T05:42:54.656Z,3.00
2023-07-22T05:45:21.270Z,3.05
2023-07-22T05:47:48.130Z,3.04
2023-07-22T05:50:14.779Z,3.08
2023-07-22T05:52:41.317Z,3.23
2023-07-22T05:55:07.979Z,3.01
2023-07-22T05:57:34.593Z,2.99
2023-07-22T06:02:30.631Z,3.16
2023-07-22T06:04:57.209Z,3.12
2023-07-22T06:07:23.805Z,3.03
2023-07-22T06:09:50.413Z,3.10
2023-07-22T06:12:16.989Z,3.13
2023-07-22T06:14:43.636Z,3.21
2023-07-22T06:17:10.244Z,3.13
2023-07-22T06:19:36.853Z,3.03
2023-07-22T06:22:03.428Z,3.13
2023-07-22T06:24:30.114Z,3.15
2023-07-22T06:26:56.808Z,3.03
2023-07-22T06:29:23.389Z,3.16
2023-07-22T06:31:50.019Z,3.03
2023-07-22T06:34:16.593Z,3.14
2023-07-22T06:36:43.176Z,3.10
2023-07-22T06:39:09.751Z,3.20
2023-07-22T06:41:36.389Z,3.34
2023-07-22T06:44:02.997Z,3.10
2023-07-22T06:46:29.872Z,3.00
2023-07-22T06:48:57.125Z,2.99
2023-07-22T06:51:23.657Z,3.05
2023-07-22T06:53:50.211Z,3.03
2023-07-22T06:56:16.802Z,3.12
2023-07-22T06:58:43.430Z,2.97
2023-07-22T07:01:10.205Z,3.03
2023-07-22T07:03:36.923Z,2.82
2023-07-22T07:06:03.501Z,3.33
2023-07-22T07:08:30.118Z,3.13
2023-07-22T07:10:56.902Z,3.07
2023-07-22T07:13:23.645Z,3.09
2023-07-22T07:15:50.333Z,3.12
2023-07-22T07:18:16.871Z,3.29
2023-07-22T07:20:43.447Z,3.38
2023-07-22T07:23:09.977Z,2.95
2023-07-22T07:25:36.552Z,3.01
2023-07-22T07:28:03.104Z,3.06
2023-07-22T07:30:29.752Z,3.24
2023-07-22T07:32:56.372Z,3.52
2023-07-22T07:35:22.930Z,3.35
2023-07-22T07:37:49.533Z,3.06
2023-07-22T07:40:16.078Z,3.07
2023-07-22T07:42:42.669Z,3.15
2023-07-22T07:45:09.252Z,3.15
2023-07-22T07:47:35.890Z,3.18
2023-07-22T07:50:02.556Z,3.00
2023-07-22T07:52:29.170Z,3.25
2023-07-22T07:54:55.756Z,3.15
2023-07-22T07:57:22.270Z,2.93
2023-07-22T07:59:48.871Z,3.22
2023-07-22T08:02:15.409Z,3.47
2023-07-22T08:04:41.991Z,3.03
2023-07-22T08:07:08.555Z,3.12
2023-07-22T08:09:35.129Z,3.05
2023-07-22T08:12:01.648Z,2.94
2023-07-22T08:14:28.225Z,2.95
2023-07-22T08:16:54.720Z,3.18
2023-07-22T08:19:21.427Z,3.09
2023-07-22T08:21:47.981Z,2.58
2023-07-22T08:24:14.537Z,2.52
2023-07-22T08:26:41.214Z,2.80
2023-07-22T08:29:07.801Z,2.93
2023-07-22T08:31:34.424Z,2.84
2023-07-22T08:34:01.004Z,2.67
2023-07-22T08:36:27.771Z,2.77
2023-07-22T08:38:54.586Z,2.77
2023-07-22T08:41:21.188Z,2.71
2023-07-22T08:43:47.841Z,2.59
2023-07-22T08:46:14.508Z,2.81
2023-07-22T08:48:41.127Z,2.77
2023-07-22T08:51:07.828Z,2.57
2023-07-22T08:53:34.664Z,2.40
2023-07-22T08:56:01.845Z,2.49
2023-07-22T08:58:28.441Z,2.52
2023-07-22T09:00:55.006Z,2.52
2023-07-22T09:03:21.768Z,2.43
2023-07-22T09:05:48.343Z,2.46
2023-07-22T09:08:15.332Z,2.61
2023-07-22T09:10:41.878Z,2.49
2023-07-22T09:13:08.443Z,2.39
2023-07-22T09:15:35.016Z,2.35
2023-07-22T09:18:01.608Z,2.33
2023-07-22T09:20:28.210Z,2.46
2023-07-22T09:23:07.486Z,2.57
2023-07-22T09:25:40.298Z,2.08
2023-07-22T09:28:07.081Z,2.06
2023-07-22T09:30:33.617Z,2.15
2023-07-22T09:33:00.217Z,2.16
2023-07-22T09:35:26.789Z,2.24
2023-07-22T09:37:53.305Z,2.20
2023-07-22T09:40:19.884Z,2.08
2023-07-22T09:42:46.460Z,2.16
2023-07-22T09:45:13.066Z,2.03
2023-07-22T09:47:39.699Z,2.13
2023-07-22T09:50:06.340Z,2.33
2023-07-22T09:52:32.887Z,1.94
2023-07-22T09:54:59.436Z,2.26
2023-07-22T09:57:25.986Z,2.25
2023-07-22T09:59:53.059Z,2.34
2023-07-22T10:02:19.634Z,2.33
2023-07-22T10:04:46.150Z,2.35
2023-07-22T10:07:12.680Z,2.32
2023-07-22T10:09:39.276Z,2.12
2023-07-22T10:12:05.876Z,2.12
2023-07-22T10:14:32.746Z,2.01
2023-07-22T10:17:00.409Z,2.28
2023-07-22T10:19:26.974Z,2.20
2023-07-22T10:21:53.649Z,2.24
2023-07-22T10:24:20.176Z,2.27
2023-07-22T10:26:48.106Z,2.31
2023-07-22T10:29:21.735Z,2.10
2023-07-22T10:31:48.273Z,2.25
2023-07-22T10:34:14.841Z,2.25
2023-07-22T10:36:42.033Z,2.30
2023-07-22T10:39:08.656Z,2.13
2023-07-22T10:41:35.242Z,2.07
2023-07-22T10:44:02.151Z,2.26
2023-07-22T10:46:29.194Z,2.34
2023-07-22T10:48:55.950Z,2.47
2023-07-22T10:51:22.505Z,2.58
2023-07-22T10:53:49.065Z,2.54
2023-07-22T10:56:15.635Z,2.34
2023-07-22T10:58:42.249Z,2.50
2023-07-22T11:01:08.857Z,2.43
2023-07-22T11:03:35.436Z,2.23
2023-07-22T11:06:04.890Z,2.44
2023-07-22T11:08:31.610Z,2.16
2023-07-22T11:10:58.237Z,2.26
2023-07-22T11:13:27.388Z,2.19
2023-07-22T11:15:54.308Z,2.40
2023-07-22T11:18:21.904Z,2.34
2023-07-22T11:20:48.477Z,2.21
2023-07-22T11:23:15.137Z,2.24
2023-07-22T11:25:41.704Z,2.41
2023-07-22T11:28:11.246Z,2.50
2023-07-22T11:30:37.834Z,2.26
2023-07-22T11:33:04.436Z,2.41
2023-07-22T11:35:31.033Z,2.25
2023-07-22T11:37:57.592Z,2.28
2023-07-22T11:40:24.379Z,2.52
2023-07-22T11:42:50.969Z,2.16
2023-07-22T11:45:17.497Z,2.42
2023-07-22T11:47:44.186Z,2.33
2023-07-22T11:50:11.813Z,2.30
2023-07-22T11:52:38.381Z,2.22
2023-07-22T11:55:05.044Z,2.40
2023-07-22T11:57:31.654Z,2.12
2023-07-22T11:59:58.328Z,2.30
2023-07-22T12:02:24.911Z,2.31
2023-07-22T12:04:51.499Z,2.26
2023-07-22T12:07:18.091Z,2.38
2023-07-22T12:09:44.705Z,2.25
2023-07-22T12:12:11.286Z,2.38
2023-07-22T12:14:41.080Z,2.22
2023-07-22T12:17:07.653Z,2.95
2023-07-22T12:19:34.233Z,3.59
2023-07-22T12:22:00.779Z,2.10
2023-07-22T12:24:27.298Z,2.28
2023-07-22T12:26:53.953Z,2.05
2023-07-22T12:29:20.583Z,2.14
2023-07-22T12:31:47.167Z,2.20
2023-07-22T12:34:13.764Z,2.28
2023-07-22T12:36:40.323Z,2.64
2023-07-22T12:39:07.025Z,2.19
2023-07-22T12:41:33.538Z,1.94
2023-07-22T12:44:00.187Z,2.04
2023-07-22T12:46:27.050Z,2.22
2023-07-22T12:48:53.600Z,2.06
2023-07-22T12:51:20.127Z,2.15
2023-07-22T12:53:46.705Z,2.27
2023-07-22T12:56:13.313Z,2.43
2023-07-22T12:58:39.921Z,2.05
2023-07-22T13:01:06.645Z,2.16
2023-07-22T13:03:33.321Z,2.03
2023-07-22T13:05:59.902Z,2.21
2023-07-22T13:08:26.490Z,2.39
2023-07-22T13:10:53.101Z,2.24
2023-07-22T13:13:19.712Z,2.08
2023-07-22T13:15:46.321Z,2.20
2023-07-22T13:18:12.965Z,2.06
2023-07-22T13:20:39.556Z,2.09
2023-07-22T13:23:08.636Z,2.16
2023-07-22T13:25:35.185Z,2.12
2023-07-22T13:28:01.726Z,2.04
2023-07-22T13:30:28.324Z,2.07
2023-07-22T13:32:54.834Z,1.98
2023-07-22T13:35:21.405Z,1.89
2023-07-22T13:37:47.920Z,2.03
2023-07-22T13:40:17.343Z,2.11
2023-07-22T13:42:44.298Z,2.06
2023-07-22T13:45:10.949Z,2.16
2023-07-22T13:47:37.675Z,1.98
2023-07-22T13:50:04.303Z,2.15
2023-07-22T13:52:31.015Z,2.00
2023-07-22T13:54:57.650Z,2.02
2023-07-22T13:57:24.276Z,2.14
2023-07-22T13:59:50.929Z,2.17
2023-07-22T14:02:17.531Z,1.99
2023-07-22T14:04:44.178Z,1.98
2023-07-22T14:07:10.765Z,1.92
2023-07-22T14:09:37.339Z,2.12
2023-07-22T14:12:03.850Z,2.16
2023-07-22T14:14:30.422Z,2.07
2023-07-22T14:16:57.050Z,1.92
2023-07-22T14:19:23.689Z,1.76
2023-07-22T14:21:50.391Z,1.63
2023-07-22T14:24:17.043Z,1.76
2023-07-22T14:26:43.658Z,1.94
2023-07-22T14:29:10.279Z,1.82
2023-07-22T14:31:36.886Z,1.90
2023-07-22T14:34:03.505Z,1.80
2023-07-22T14:36:30.050Z,1.86
2023-07-22T14:38:56.663Z,2.01
2023-07-22T14:41:23.220Z,2.00
2023-07-22T14:43:49.886Z,1.93
2023-07-22T14:46:16.451Z,1.75
2023-07-22T14:48:43.039Z,1.91
2023-07-22T14:51:09.664Z,1.86
2023-07-22T14:53:36.278Z,1.81
2023-07-22T14:56:02.906Z,1.96
2023-07-22T14:58:29.474Z,1.80
2023-07-22T15:00:56.031Z,1.68
2023-07-22T15:03:22.844Z,1.91
2023-07-22T15:05:49.412Z,1.74
2023-07-22T15:08:15.950Z,1.90
2023-07-22T15:10:42.741Z,1.89
2023-07-22T15:13:09.721Z,1.91
2023-07-22T15:15:36.340Z,1.90
2023-07-22T15:18:02.932Z,1.85
2023-07-22T15:20:30.264Z,1.95
2023-07-22T15:22:56.879Z,1.91
2023-07-22T15:25:23.458Z,1.92
2023-07-22T15:27:50.008Z,1.81
2023-07-22T15:32:42.476Z,1.92
2023-07-22T15:35:09.081Z,1.80
2023-07-22T15:37:35.623Z,1.87
2023-07-22T15:40:02.184Z,1.84
2023-07-22T15:42:28.813Z,1.83
2023-07-22T15:44:55.385Z,1.89
2023-07-22T15:47:22.026Z,1.96
2023-07-22T15:49:48.600Z,1.96
2023-07-22T15:52:15.173Z,1.75
2023-07-22T15:54:41.767Z,1.75
2023-07-22T15:57:08.331Z,1.87
2023-07-22T15:59:34.897Z,1.75
2023-07-22T16:02:01.545Z,1.84
2023-07-22T16:04:28.143Z,1.91
2023-07-22T16:06:54.732Z,1.84
2023-07-22T16:09:21.299Z,1.93
2023-07-22T16:11:47.948Z,1.94
2023-07-22T16:14:14.602Z,1.93
2023-07-22T16:16:41.166Z,1.84
2023-07-22T16:19:07.786Z,1.97
2023-07-22T16:21:34.351Z,2.03
2023-07-22T16:24:00.938Z,1.96
2023-07-22T16:26:27.442Z,1.95
2023-07-22T16:28:53.947Z,1.90
2023-07-22T16:31:20.525Z,1.92
2023-07-22T16:33:47.154Z,1.97
2023-07-22T16:36:13.771Z,1.99
2023-07-22T16:38:40.382Z,1.95
2023-07-22T16:41:07.010Z,1.94
2023-07-22T16:43:33.603Z,1.78
2023-07-22T16:46:00.204Z,2.27
2023-07-22T16:48:26.800Z,1.90
2023-07-22T16:50:53.356Z,2.16
2023-07-22T16:53:19.960Z,2.12
2023-07-22T16:55:46.585Z,2.33
2023-07-22T16:58:13.172Z,2.20
2023-07-22T17:00:39.749Z,2.14
2023-07-22T17:03:06.448Z,2.23
2023-07-22T17:05:33.025Z,2.35
2023-07-22T17:07:59.557Z,2.29
2023-07-22T17:10:26.138Z,2.32
2023-07-22T17:12:52.677Z,2.19
2023-07-22T17:15:19.423Z,2.22
2023-07-22T17:17:46.029Z,2.25
2023-07-22T17:20:12.626Z,2.47
2023-07-22T17:22:39.150Z,2.34
2023-07-22T17:25:05.731Z,2.35
2023-07-22T17:27:32.315Z,2.25
2023-07-22T17:29:58.910Z,2.16
2023-07-22T17:32:25.544Z,2.33
2023-07-22T17:34:52.112Z,2.44
2023-07-22T17:37:18.749Z,2.25
2023-07-22T17:39:45.541Z,2.61
2023-07-22T17:42:12.094Z,2.55
2023-07-22T17:44:39.001Z,2.66
2023-07-22T17:47:05.555Z,2.48
2023-07-22T17:49:32.454Z,2.88
2023-07-22T17:51:59.337Z,3.05
2023-07-22T17:54:25.893Z,2.98
2023-07-22T17:56:53.034Z,3.06
2023-07-22T17:59:20.086Z,3.00
2023-07-22T18:01:46.634Z,3.03
2023-07-22T18:04:13.167Z,2.83
2023-07-22T18:06:39.724Z,2.95
2023-07-22T18:09:06.515Z,2.90
2023-07-22T18:11:33.202Z,2.85
2023-07-22T18:13:59.787Z,2.91
2023-07-22T18:16:26.301Z,2.72
2023-07-22T18:18:52.884Z,2.87
2023-07-22T18:21:19.423Z,2.89
2023-07-22T18:23:46.023Z,3.00
2023-07-22T18:26:12.658Z,2.91
2023-07-22T18:28:39.267Z,2.84
2023-07-22T18:31:05.891Z,2.78
2023-07-22T18:33:32.493Z,3.02
2023-07-22T18:35:59.010Z,2.85
2023-07-22T18:38:25.530Z,3.33
2023-07-22T18:40:52.132Z,3.21
2023-07-22T18:43:20.570Z,3.06
2023-07-22T18:45:48.724Z,3.15
2023-07-22T18:48:15.287Z,2.99
2023-07-22T18:50:41.883Z,2.95
2023-07-22T18:53:08.422Z,2.93
2023-07-22T18:55:35.009Z,2.91
2023-07-22T18:58:01.561Z,3.01
2023-07-22T19:00:28.152Z,2.65
2023-07-22T19:02:55.901Z,3.04
2023-07-22T19:05:23.644Z,2.95
2023-07-22T19:07:50.182Z,3.18
2023-07-22T19:10:16.671Z,3.19
2023-07-22T19:12:43.304Z,2.97
2023-07-22T19:15:09.841Z,2.85
2023-07-22T19:17:36.403Z,2.95
2023-07-22T19:20:02.953Z,3.19
2023-07-22T19:22:29.490Z,3.45
2023-07-22T19:24:56.050Z,3.33
2023-07-22T19:27:22.557Z,3.16
2023-07-22T19:29:49.092Z,3.50
2023-07-22T19:32:15.603Z,3.63
2023-07-22T19:34:42.173Z,3.64
2023-07-22T19:37:08.704Z,4.81
2023-07-22T19:39:35.293Z,4.93
2023-07-22T19:42:02.901Z,5.71
2023-07-22T19:44:29.517Z,5.97
2023-07-22T19:46:56.053Z,5.55
2023-07-22T19:49:22.993Z,4.90
2023-07-22T19:51:50.191Z,5.58
2023-07-22T19:54:16.726Z,5.27
2023-07-22T19:56:43.258Z,5.29
2023-07-22T19:59:10.150Z,4.91
2023-07-22T20:01:37.038Z,4.98
2023-07-22T20:04:03.914Z,4.57
2023-07-22T20:06:30.491Z,4.54
2023-07-22T20:08:57.074Z,4.21
2023-07-22T20:11:25.774Z,4.32
2023-07-22T20:13:53.514Z,3.93
2023-07-22T20:16:20.075Z,3.90
2023-07-22T20:18:46.698Z,3.51
2023-07-22T20:21:14.211Z,3.60
2023-07-22T20:23:41.724Z,3.67
2023-07-22T20:26:08.481Z,3.26
2023-07-22T20:28:35.104Z,3.23
2023-07-22T20:31:01.880Z,2.99
2023-07-22T20:33:28.904Z,3.11
2023-07-22T20:35:55.446Z,3.28
2023-07-22T20:38:22.839Z,3.20
2023-07-22T20:40:49.513Z,3.13
2023-07-22T20:43:17.142Z,3.03
2023-07-22T20:45:43.820Z,3.13
2023-07-22T20:48:10.429Z,3.12
2023-07-22T20:50:36.952Z,3.21
2023-07-22T20:53:03.506Z,3.24
2023-07-22T20:55:30.080Z,3.21
2023-07-22T20:57:56.683Z,3.03
2023-07-22T21:00:23.243Z,3.26
2023-07-22T21:02:49.978Z,3.04
2023-07-22T21:05:17.683Z,2.95
2023-07-22T21:07:44.488Z,3.14
2023-07-22T21:10:11.064Z,3.06
2023-07-22T21:12:37.623Z,3.07
2023-07-22T21:15:04.338Z,3.42
2023-07-22T21:17:30.961Z,3.40
2023-07-22T21:19:57.665Z,3.43
2023-07-22T21:22:24.237Z,3.28
2023-07-22T21:24:50.783Z,3.32
2023-07-22T21:27:17.358Z,3.62
2023-07-22T21:29:44.115Z,3.49
2023-07-22T21:32:10.779Z,3.48
2023-07-22T21:34:37.333Z,3.68
2023-07-22T21:37:04.128Z,3.72
2023-07-22T21:39:30.706Z,3.88
2023-07-22T21:41:57.276Z,3.74
2023-07-22T21:44:23.786Z,3.89
2023-07-22T21:46:50.348Z,3.58
2023-07-22T21:49:16.898Z,3.88
2023-07-22T21:51:43.455Z,3.87
2023-07-22T21:54:10.066Z,3.48
2023-07-22T21:56:36.685Z,3.59
2023-07-22T21:59:03.201Z,3.55
2023-07-22T22:01:30.033Z,3.70
2023-07-22T22:03:56.900Z,3.66
2023-07-22T22:06:23.470Z,3.79
2023-07-22T22:08:50.085Z,3.79
2023-07-22T22:11:16.715Z,3.57
2023-07-22T22:13:43.295Z,3.40
2023-07-22T22:16:09.911Z,3.75
2023-07-22T22:18:36.485Z,3.82
2023-07-22T22:21:03.120Z,3.79
2023-07-22T22:23:29.789Z,3.85
2023-07-22T22:25:56.388Z,3.55
2023-07-22T22:28:22.930Z,3.81
2023-07-22T22:30:49.612Z,3.76
2023-07-22T22:33:16.577Z,3.87
2023-07-22T22:35:43.151Z,3.85
2023-07-22T22:38:09.772Z,4.03
2023-07-22T22:40:36.333Z,3.84
2023-07-22T22:43:02.894Z,3.85
2023-07-22T22:45:32.769Z,3.75
2023-07-22T22:47:59.700Z,4.07
2023-07-22T22:50:26.377Z,3.92
2023-07-22T22:52:52.935Z,3.87
2023-07-22T22:55:19.520Z,4.14
2023-07-22T22:57:48.205Z,4.07
2023-07-22T23:00:16.308Z,3.85
2023-07-22T23:02:42.901Z,3.97
2023-07-22T23:05:09.427Z,3.92
2023-07-22T23:07:36.079Z,4.09
2023-07-22T23:10:02.634Z,3.92
2023-07-22T23:12:29.203Z,3.94
2023-07-22T23:14:55.776Z,3.95
2023-07-22T23:17:22.289Z,4.05
2023-07-22T23:19:48.812Z,4.19
2023-07-22T23:22:15.381Z,4.22
2023-07-22T23:24:42.065Z,4.31
2023-07-22T23:27:08.654Z,4.23
2023-07-22T23:29:35.523Z,4.12
2023-07-22T23:32:02.245Z,3.94
2023-07-22T23:34:28.922Z,4.06
2023-07-22T23:36:55.483Z,3.85
2023-07-22T23:39:22.083Z,3.91
2023-07-22T23:41:48.625Z,3.63
2023-07-22T23:44:15.235Z,3.57
2023-07-22T23:46:41.869Z,3.64
2023-07-22T23:49:08.463Z,3.88
2023-07-22T23:51:35.037Z,3.79
2023-07-22T23:54:01.651Z,3.77
2023-07-22T23:56:28.407Z,3.64
2023-07-22T23:58:55.082Z,3.84
